createdAt,value
2019-05-28T00:00:02.509Z,12.33
2019-05-28T00:02:27.234Z,12.40
2019-05-28T00:04:55.704Z,13.27
2019-05-28T00:07:24.166Z,11.40
2019-05-28T00:09:52.583Z,11.40
2019-05-28T00:12:21.327Z,12.03
2019-05-28T00:14:50.013Z,11.70
2019-05-28T00:17:18.780Z,11.33
2019-05-28T00:19:47.587Z,11.60
2019-05-28T00:22:16.077Z,11.80
2019-05-28T00:24:44.863Z,11.63
2019-05-28T00:27:13.319Z,11.40
2019-05-28T00:29:42.033Z,11.60
2019-05-28T00:32:10.403Z,11.87
2019-05-28T00:34:38.829Z,12.07
2019-05-28T00:37:08.089Z,11.23
2019-05-28T00:39:36.636Z,11.70
2019-05-28T00:42:05.540Z,11.73
2019-05-28T00:44:34.055Z,11.10
2019-05-28T00:47:02.508Z,11.73
2019-05-28T00:49:30.989Z,11.27
2019-05-28T00:51:59.449Z,11.50
2019-05-28T00:54:28.087Z,11.40
2019-05-28T00:56:56.986Z,11.40
2019-05-28T00:59:25.544Z,11.73
2019-05-28T01:01:53.929Z,11.40
2019-05-28T01:04:22.330Z,11.57
2019-05-28T01:06:52.386Z,11.63
2019-05-28T01:09:20.833Z,11.80
2019-05-28T01:11:49.263Z,12.00
2019-05-28T01:14:17.830Z,12.70
2019-05-28T01:16:46.265Z,11.30
2019-05-28T01:19:14.722Z,11.57
2019-05-28T01:21:43.119Z,11.07
2019-05-28T01:24:11.516Z,11.40
2019-05-28T01:26:39.908Z,10.97
2019-05-28T01:29:08.380Z,10.70
2019-05-28T01:31:36.745Z,11.40
2019-05-28T01:34:05.302Z,10.80
2019-05-28T01:36:33.690Z,10.80
2019-05-28T01:39:02.171Z,11.40
2019-05-28T01:41:30.887Z,11.50
2019-05-28T01:43:59.292Z,10.97
2019-05-28T01:46:27.732Z,10.90
2019-05-28T01:48:56.122Z,11.67
2019-05-28T01:51:24.929Z,10.80
2019-05-28T01:53:53.815Z,11.03
2019-05-28T01:56:22.260Z,10.70
2019-05-28T01:58:50.730Z,11.13
2019-05-28T02:01:19.176Z,11.53
2019-05-28T02:03:48.794Z,11.00
2019-05-28T02:06:17.249Z,12.30
2019-05-28T02:08:45.705Z,10.90
2019-05-28T02:11:14.181Z,10.60
2019-05-28T02:13:42.672Z,10.40
2019-05-28T02:16:11.051Z,10.73
2019-05-28T02:18:39.475Z,11.13
2019-05-28T02:21:07.836Z,10.37
2019-05-28T02:23:36.338Z,10.10
2019-05-28T02:26:05.009Z,11.00
2019-05-28T02:28:33.481Z,10.50
2019-05-28T02:31:01.907Z,10.43
2019-05-28T02:33:30.346Z,10.20
2019-05-28T02:35:58.730Z,10.90
2019-05-28T02:38:27.277Z,10.80
2019-05-28T02:40:55.784Z,10.90
2019-05-28T02:43:24.269Z,10.67
2019-05-28T02:45:52.702Z,9.83
2019-05-28T02:48:21.089Z,10.33
2019-05-28T02:51:00.039Z,10.30
2019-05-28T02:53:29.361Z,10.10
2019-05-28T02:55:58.450Z,10.40
2019-05-28T02:58:29.635Z,9.90
2019-05-28T03:00:59.052Z,10.60
2019-05-28T03:03:32.408Z,10.90
2019-05-28T03:06:00.989Z,11.73
2019-05-28T03:08:33.081Z,10.20
2019-05-28T03:11:04.150Z,10.47
2019-05-28T03:13:32.538Z,10.37
2019-05-28T03:16:02.518Z,11.07
2019-05-28T03:18:31.036Z,10.70
2019-05-28T03:21:00.727Z,11.50
2019-05-28T03:23:30.671Z,11.33
2019-05-28T03:25:59.222Z,11.13
2019-05-28T03:28:27.680Z,10.77
2019-05-28T03:30:56.160Z,10.93
2019-05-28T03:33:24.853Z,11.37
2019-05-28T03:35:55.024Z,11.10
2019-05-28T03:38:25.761Z,10.90
2019-05-28T03:40:54.222Z,11.60
2019-05-28T03:43:22.643Z,11.57
2019-05-28T03:45:51.465Z,11.63
2019-05-28T03:48:19.967Z,11.90
2019-05-28T03:50:48.452Z,11.10
2019-05-28T03:53:16.903Z,11.37
2019-05-28T03:55:45.343Z,10.90
2019-05-28T03:58:13.856Z,11.90
2019-05-28T04:00:42.340Z,11.63
2019-05-28T04:03:10.772Z,11.77
2019-05-28T04:05:39.248Z,11.30
2019-05-28T04:08:07.807Z,11.10
2019-05-28T04:10:36.504Z,11.50
2019-05-28T04:13:05.515Z,11.60
2019-05-28T04:15:34.456Z,11.70
2019-05-28T04:18:02.974Z,12.07
2019-05-28T04:20:31.377Z,10.90
2019-05-28T04:22:59.817Z,11.50
2019-05-28T04:25:28.304Z,11.10
2019-05-28T04:27:56.997Z,11.37
2019-05-28T04:30:25.468Z,10.70
2019-05-28T04:32:53.914Z,12.07
2019-05-28T04:35:22.370Z,11.23
2019-05-28T04:37:50.891Z,12.00
2019-05-28T04:40:19.359Z,12.00
2019-05-28T04:42:47.801Z,11.40
2019-05-28T04:45:17.456Z,11.43
2019-05-28T04:47:46.289Z,11.83
2019-05-28T04:50:18.351Z,11.30
2019-05-28T04:52:46.909Z,12.33
2019-05-28T04:55:15.461Z,12.10
2019-05-28T04:57:43.907Z,11.57
2019-05-28T05:00:12.437Z,12.30
2019-05-28T05:02:57.686Z,11.83
2019-05-28T05:05:11.243Z,11.40
2019-05-28T05:07:39.714Z,10.60
2019-05-28T05:10:08.455Z,11.80
2019-05-28T05:12:36.999Z,12.37
2019-05-28T05:15:06.643Z,11.63
2019-05-28T05:17:35.064Z,11.70
2019-05-28T05:20:05.462Z,11.00
2019-05-28T05:22:33.860Z,11.00
2019-05-28T05:25:02.346Z,11.73
2019-05-28T05:27:31.017Z,11.33
2019-05-28T05:29:59.440Z,11.23
2019-05-28T05:32:28.287Z,10.77
2019-05-28T05:34:56.726Z,11.13
2019-05-28T05:37:25.263Z,11.47
2019-05-28T05:39:53.649Z,12.40
2019-05-28T05:42:22.534Z,12.90
2019-05-28T05:44:51.025Z,12.07
2019-05-28T05:47:19.806Z,11.60
2019-05-28T05:49:48.352Z,11.93
2019-05-28T05:52:16.828Z,12.20
2019-05-28T05:54:45.242Z,11.63
2019-05-28T05:57:13.750Z,12.10
2019-05-28T05:59:42.159Z,11.70
2019-05-28T06:02:10.529Z,12.50
2019-05-28T06:04:45.585Z,12.07
2019-05-28T06:07:14.069Z,11.77
2019-05-28T06:09:42.488Z,11.97
2019-05-28T06:12:10.873Z,12.20
2019-05-28T06:14:40.140Z,11.50
2019-05-28T06:17:08.519Z,11.40
2019-05-28T06:19:36.944Z,12.10
2019-05-28T06:22:05.572Z,11.60
2019-05-28T06:24:33.982Z,11.43
2019-05-28T06:27:02.430Z,12.40
2019-05-28T06:29:30.892Z,10.80
2019-05-28T06:31:59.280Z,11.80
2019-05-28T06:34:27.742Z,11.23
2019-05-28T06:36:56.625Z,11.63
2019-05-28T06:39:25.088Z,10.43
2019-05-28T06:41:53.452Z,11.00
2019-05-28T06:44:21.943Z,10.37
2019-05-28T06:46:50.537Z,11.30
2019-05-28T06:49:19.011Z,10.90
2019-05-28T06:51:47.469Z,17.87
2019-05-28T06:54:15.870Z,12.07
2019-05-28T06:56:44.577Z,11.67
2019-05-28T06:59:13.778Z,11.27
2019-05-28T07:01:42.563Z,11.17
2019-05-28T07:04:15.904Z,11.20
2019-05-28T07:06:41.463Z,11.27
2019-05-28T07:09:10.161Z,11.20
2019-05-28T07:11:38.624Z,10.70
2019-05-28T07:14:07.411Z,10.40
2019-05-28T07:16:49.993Z,10.60
2019-05-28T07:19:23.066Z,10.20
2019-05-28T07:21:36.564Z,10.07
2019-05-28T07:24:05.362Z,9.97
2019-05-28T07:26:33.836Z,10.43
2019-05-28T07:29:02.218Z,9.90
2019-05-28T07:31:30.671Z,9.67
2019-05-28T07:33:59.136Z,9.43
2019-05-28T07:36:27.519Z,10.53
2019-05-28T07:38:55.982Z,10.33
2019-05-28T07:41:24.445Z,10.17
2019-05-28T07:43:52.918Z,9.83
2019-05-28T07:46:21.321Z,10.23
2019-05-28T07:48:49.829Z,10.40
2019-05-28T07:51:18.327Z,10.00
2019-05-28T07:53:47.052Z,10.73
2019-05-28T07:56:15.535Z,10.07
2019-05-28T07:58:43.913Z,10.53
2019-05-28T08:01:12.365Z,9.83
2019-05-28T08:03:40.850Z,10.03
2019-05-28T08:06:09.332Z,11.20
2019-05-28T08:08:37.774Z,10.93
2019-05-28T08:11:06.169Z,10.30
2019-05-28T08:13:40.706Z,9.77
2019-05-28T08:16:23.880Z,9.43
2019-05-28T08:18:35.358Z,9.73
2019-05-28T08:21:03.846Z,9.73
2019-05-28T08:23:32.627Z,10.67
2019-05-28T08:26:01.897Z,9.43
2019-05-28T08:28:30.646Z,9.53
2019-05-28T08:31:14.118Z,10.27
2019-05-28T08:33:29.314Z,9.50
2019-05-28T08:35:57.769Z,9.93
2019-05-28T08:38:26.373Z,9.80
2019-05-28T08:40:54.791Z,9.80
2019-05-28T08:43:23.339Z,9.47
2019-05-28T08:45:51.834Z,9.37
2019-05-28T08:48:20.318Z,9.30
2019-05-28T08:50:48.932Z,9.30
2019-05-28T08:53:17.788Z,9.70
2019-05-28T08:55:46.474Z,9.80
2019-05-28T08:58:14.992Z,9.97
2019-05-28T09:00:44.467Z,10.03
2019-05-28T09:03:13.216Z,9.80
2019-05-28T09:05:41.800Z,9.70
2019-05-28T09:08:10.440Z,9.90
2019-05-28T09:10:38.876Z,9.90
2019-05-28T09:13:07.402Z,9.50
2019-05-28T09:15:35.949Z,9.30
2019-05-28T09:18:04.776Z,9.87
2019-05-28T09:20:33.314Z,9.80
2019-05-28T09:23:01.812Z,9.33
2019-05-28T09:25:30.293Z,10.27
2019-05-28T09:27:58.803Z,9.87
2019-05-28T09:30:27.348Z,9.73
2019-05-28T09:32:55.787Z,9.80
2019-05-28T09:35:24.247Z,10.70
2019-05-28T09:37:52.693Z,10.17
2019-05-28T09:40:22.712Z,10.13
2019-05-28T09:42:51.426Z,9.60
2019-05-28T09:45:22.856Z,9.20
2019-05-28T09:47:50.150Z,9.30
2019-05-28T09:50:30.026Z,9.70
2019-05-28T09:52:54.996Z,9.40
2019-05-28T09:55:20.045Z,8.83
2019-05-28T09:57:48.481Z,9.50
2019-05-28T10:00:21.036Z,9.47
2019-05-28T10:02:50.608Z,9.53
2019-05-28T10:05:19.727Z,9.00
2019-05-28T10:07:48.745Z,9.20
2019-05-28T10:10:17.447Z,9.23
2019-05-28T10:12:46.495Z,9.60
2019-05-28T10:15:19.024Z,9.63
2019-05-28T10:17:47.547Z,9.60
2019-05-28T10:20:16.825Z,10.30
2019-05-28T10:22:45.274Z,10.10
2019-05-28T10:25:13.980Z,10.00
2019-05-28T10:27:59.243Z,10.30
2019-05-28T10:30:14.898Z,9.80
2019-05-28T10:32:43.300Z,9.77
2019-05-28T10:35:12.601Z,10.17
2019-05-28T10:37:41.487Z,9.70
2019-05-28T10:40:10.701Z,9.90
2019-05-28T10:42:39.137Z,9.60
2019-05-28T10:45:11.405Z,9.47
2019-05-28T10:47:39.935Z,9.70
2019-05-28T10:50:10.022Z,9.87
2019-05-28T10:52:38.841Z,9.73
2019-05-28T10:55:08.471Z,10.03
2019-05-28T10:57:37.141Z,9.90
2019-05-28T11:00:07.157Z,9.80
2019-05-28T11:02:35.609Z,9.27
2019-05-28T11:05:05.742Z,10.10
2019-05-28T11:07:34.193Z,9.40
2019-05-28T11:10:02.924Z,9.50
2019-05-28T11:12:31.491Z,9.50
2019-05-28T11:14:59.889Z,9.83
2019-05-28T11:17:28.316Z,10.73
2019-05-28T11:19:57.161Z,10.57
2019-05-28T11:22:25.846Z,10.00
2019-05-28T11:24:54.261Z,10.40
2019-05-28T11:27:24.130Z,9.80
2019-05-28T11:29:52.817Z,9.50
2019-05-28T11:32:21.285Z,10.27
2019-05-28T11:34:49.940Z,10.73
2019-05-28T11:37:18.455Z,10.50
2019-05-28T11:39:46.934Z,9.73
2019-05-28T11:42:15.308Z,10.00
2019-05-28T11:44:43.750Z,9.63
2019-05-28T11:47:12.281Z,10.30
2019-05-28T11:49:40.671Z,9.80
2019-05-28T11:52:09.141Z,10.00
2019-05-28T11:54:37.966Z,10.00
2019-05-28T11:57:06.408Z,10.20
2019-05-28T11:59:35.135Z,9.80
2019-05-28T12:02:05.300Z,10.37
2019-05-28T12:04:33.845Z,10.03
2019-05-28T12:07:02.298Z,9.23
2019-05-28T12:09:31.005Z,10.00
2019-05-28T12:11:59.541Z,9.97
2019-05-28T12:14:28.014Z,10.20
2019-05-28T12:16:56.522Z,9.50
2019-05-28T12:19:24.991Z,9.43
2019-05-28T12:21:53.441Z,9.97
2019-05-28T12:24:22.067Z,9.33
2019-05-28T12:26:50.560Z,9.40
2019-05-28T12:29:19.061Z,9.90
2019-05-28T12:31:47.599Z,9.97
2019-05-28T12:34:16.071Z,9.70
2019-05-28T12:36:44.662Z,9.57
2019-05-28T12:39:13.116Z,9.10
2019-05-28T12:41:41.495Z,9.30
2019-05-28T12:44:10.369Z,9.80
2019-05-28T12:46:38.961Z,9.30
2019-05-28T12:49:07.642Z,9.27
2019-05-28T12:51:36.449Z,10.00
2019-05-28T12:54:05.440Z,9.27
2019-05-28T12:56:33.982Z,9.17
2019-05-28T12:59:02.445Z,9.53
2019-05-28T13:01:31.106Z,8.90
2019-05-28T13:03:59.506Z,9.27
2019-05-28T13:06:28.364Z,8.80
2019-05-28T13:08:57.149Z,9.47
2019-05-28T13:11:25.633Z,9.43
2019-05-28T13:13:54.011Z,8.70
2019-05-28T13:16:22.546Z,9.70
2019-05-28T13:18:51.009Z,9.40
2019-05-28T13:21:19.553Z,8.70
2019-05-28T13:23:48.113Z,8.70
2019-05-28T13:26:16.601Z,8.90
2019-05-28T13:28:45.309Z,9.00
2019-05-28T13:31:13.785Z,8.40
2019-05-28T13:33:42.582Z,9.47
2019-05-28T13:36:11.057Z,8.63
2019-05-28T13:38:42.726Z,9.47
2019-05-28T13:41:09.798Z,8.77
2019-05-28T13:43:38.173Z,8.40
2019-05-28T13:46:06.642Z,8.10
2019-05-28T13:48:35.075Z,8.53
2019-05-28T13:51:03.533Z,8.47
2019-05-28T13:53:31.974Z,8.90
2019-05-28T13:56:00.687Z,8.67
2019-05-28T13:58:29.127Z,8.63
2019-05-28T14:00:57.559Z,8.73
2019-05-28T14:03:26.358Z,8.47
2019-05-28T14:05:54.994Z,8.57
2019-05-28T14:08:23.413Z,8.27
2019-05-28T14:10:55.954Z,8.80
2019-05-28T14:13:24.336Z,8.10
2019-05-28T14:15:52.799Z,8.30
2019-05-28T14:18:21.325Z,8.40
2019-05-28T14:20:49.785Z,8.37
2019-05-28T14:23:18.248Z,8.63
2019-05-28T14:25:46.792Z,9.07
2019-05-28T14:28:15.246Z,8.33
2019-05-28T14:30:58.794Z,8.60
2019-05-28T14:33:13.815Z,8.20
2019-05-28T14:35:42.426Z,8.40
2019-05-28T14:38:10.930Z,8.10
2019-05-28T14:40:39.569Z,8.73
2019-05-28T14:43:08.101Z,9.27
2019-05-28T14:45:36.969Z,8.90
2019-05-28T14:48:05.524Z,8.40
2019-05-28T14:50:34.118Z,8.00
2019-05-28T14:53:02.625Z,8.63
2019-05-28T14:55:31.310Z,8.67
2019-05-28T14:57:59.730Z,8.70
2019-05-28T15:00:28.174Z,9.50
2019-05-28T15:02:56.637Z,8.90
2019-05-28T15:05:25.013Z,8.73
2019-05-28T15:07:53.705Z,8.83
2019-05-28T15:10:23.028Z,8.30
2019-05-28T15:12:51.589Z,8.60
2019-05-28T15:15:34.472Z,8.57
2019-05-28T15:17:50.925Z,8.30
2019-05-28T15:20:19.942Z,8.37
2019-05-28T15:22:48.535Z,8.97
2019-05-28T15:25:17.109Z,9.00
2019-05-28T15:27:45.624Z,8.80
2019-05-28T15:30:15.755Z,8.77
2019-05-28T15:32:44.233Z,8.23
2019-05-28T15:35:13.552Z,8.33
2019-05-28T15:37:42.117Z,8.40
2019-05-28T15:40:12.658Z,8.60
2019-05-28T15:42:42.848Z,8.63
2019-05-28T15:45:12.029Z,8.90
2019-05-28T15:47:44.440Z,8.23
2019-05-28T15:50:11.605Z,8.73
2019-05-28T15:52:40.551Z,8.63
2019-05-28T15:55:09.573Z,8.20
2019-05-28T15:57:38.316Z,8.40
2019-05-28T16:00:12.078Z,8.30
2019-05-28T16:02:40.683Z,8.37
2019-05-28T16:05:09.083Z,8.80
2019-05-28T16:07:37.650Z,8.70
2019-05-28T16:10:08.320Z,8.90
2019-05-28T16:12:36.869Z,8.50
2019-05-28T16:15:07.182Z,8.30
2019-05-28T16:17:36.002Z,8.70
2019-05-28T16:20:06.505Z,8.40
2019-05-28T16:22:35.040Z,8.60
2019-05-28T16:25:05.536Z,9.40
2019-05-28T16:27:34.046Z,8.50
2019-05-28T16:30:03.152Z,8.80
2019-05-28T16:32:31.606Z,8.53
2019-05-28T16:35:00.505Z,8.20
2019-05-28T16:37:29.314Z,8.93
2019-05-28T16:40:13.592Z,8.77
2019-05-28T16:42:28.463Z,8.60
2019-05-28T16:44:56.967Z,8.50
2019-05-28T16:47:25.538Z,8.43
2019-05-28T16:49:53.940Z,9.60
2019-05-28T16:52:22.853Z,9.40
2019-05-28T16:54:51.649Z,8.50
2019-05-28T16:57:20.438Z,8.40
2019-05-28T16:59:49.216Z,8.30
2019-05-28T17:02:17.655Z,8.53
2019-05-28T17:04:46.070Z,9.87
2019-05-28T17:07:14.597Z,8.30
2019-05-28T17:09:43.074Z,8.33
2019-05-28T17:12:11.546Z,8.40
2019-05-28T17:14:40.312Z,8.40
2019-05-28T17:17:08.775Z,8.20
2019-05-28T17:19:37.276Z,8.40
2019-05-28T17:22:05.707Z,9.00
2019-05-28T17:24:34.192Z,8.50
2019-05-28T17:27:02.582Z,8.50
2019-05-28T17:29:31.098Z,8.93
2019-05-28T17:31:59.898Z,8.13
2019-05-28T17:34:28.504Z,8.47
2019-05-28T17:36:57.377Z,8.40
2019-05-28T17:39:26.163Z,8.70
2019-05-28T17:41:54.703Z,8.90
2019-05-28T17:44:23.202Z,8.93
2019-05-28T17:46:51.600Z,9.07
2019-05-28T17:49:20.011Z,8.93
2019-05-28T17:51:48.496Z,8.70
2019-05-28T17:54:17.039Z,8.77
2019-05-28T17:56:45.522Z,8.70
2019-05-28T17:59:14.341Z,9.50
2019-05-28T18:01:46.334Z,10.30
2019-05-28T18:04:13.184Z,10.07
2019-05-28T18:06:41.684Z,9.00
2019-05-28T18:09:10.094Z,8.70
2019-05-28T18:11:38.513Z,8.73
2019-05-28T18:14:06.967Z,8.30
2019-05-28T18:16:35.327Z,8.50
2019-05-28T18:19:03.916Z,8.40
2019-05-28T18:21:32.415Z,8.83
2019-05-28T18:24:00.817Z,8.47
2019-05-28T18:26:29.256Z,8.50
2019-05-28T18:28:57.726Z,8.43
2019-05-28T18:31:26.311Z,8.77
2019-05-28T18:33:54.774Z,8.80
2019-05-28T18:36:23.374Z,8.67
2019-05-28T18:38:51.779Z,8.37
2019-05-28T18:41:21.953Z,8.80
2019-05-28T18:43:51.103Z,8.73
2019-05-28T18:46:19.555Z,8.30
2019-05-28T18:48:48.021Z,8.40
2019-05-28T18:51:16.526Z,8.30
2019-05-28T18:53:45.003Z,8.67
2019-05-28T18:56:17.548Z,8.60
2019-05-28T18:58:43.736Z,8.37
2019-05-28T19:01:12.208Z,8.40
2019-05-28T19:03:40.591Z,9.53
2019-05-28T19:06:09.071Z,11.23
2019-05-28T19:08:37.877Z,8.60
2019-05-28T19:11:06.458Z,8.50
2019-05-28T19:13:34.905Z,8.63
2019-05-28T19:16:03.427Z,8.47
2019-05-28T19:18:31.886Z,8.97
2019-05-28T19:21:00.352Z,8.83
2019-05-28T19:23:28.886Z,9.07
2019-05-28T19:25:57.665Z,8.60
2019-05-28T19:28:26.198Z,8.70
2019-05-28T19:30:54.666Z,8.47
2019-05-28T19:33:23.247Z,8.40
2019-05-28T19:35:51.718Z,8.70
2019-05-28T19:38:20.407Z,8.27
2019-05-28T19:40:48.849Z,8.10
2019-05-28T19:43:17.313Z,9.07
2019-05-28T19:45:46.640Z,8.63
2019-05-28T19:48:15.119Z,9.20
2019-05-28T19:50:43.705Z,11.17
2019-05-28T19:53:12.057Z,9.63
2019-05-28T19:55:40.655Z,11.47
2019-05-28T19:58:09.190Z,8.60
2019-05-28T20:00:37.698Z,8.80
2019-05-28T20:03:06.211Z,8.70
2019-05-28T20:05:34.753Z,8.20
2019-05-28T20:08:08.372Z,8.87
2019-05-28T20:10:38.492Z,8.17
2019-05-28T20:13:09.764Z,8.67
2019-05-28T20:15:38.635Z,8.77
2019-05-28T20:18:07.167Z,8.37
2019-05-28T20:20:35.705Z,8.20
2019-05-28T20:23:04.232Z,8.40
2019-05-28T20:25:33.427Z,8.70
2019-05-28T20:28:01.802Z,8.33
2019-05-28T20:30:30.277Z,8.40
2019-05-28T20:32:59.143Z,8.67
2019-05-28T20:35:30.975Z,8.70
2019-05-28T20:37:58.041Z,8.20
2019-05-28T20:40:26.495Z,9.90
2019-05-28T20:42:54.882Z,8.60
2019-05-28T20:45:23.535Z,8.67
2019-05-28T20:47:51.995Z,15.40
2019-05-28T20:50:20.708Z,15.33
2019-05-28T20:52:49.237Z,8.47
2019-05-28T20:55:18.027Z,8.17
2019-05-28T20:57:47.107Z,8.97
2019-05-28T21:00:15.736Z,7.97
2019-05-28T21:02:44.187Z,14.40
2019-05-28T21:05:12.744Z,9.30
2019-05-28T21:07:41.191Z,9.23
2019-05-28T21:10:10.076Z,9.07
2019-05-28T21:12:44.358Z,8.13
2019-05-28T21:15:09.194Z,8.33
2019-05-28T21:17:37.653Z,8.17
2019-05-28T21:20:09.011Z,7.83
2019-05-28T21:22:37.388Z,8.70
2019-05-28T21:25:06.618Z,8.10
2019-05-28T21:27:35.149Z,8.63
2019-05-28T21:30:05.537Z,8.00
2019-05-28T21:32:33.934Z,8.40
2019-05-28T21:35:02.804Z,8.40
2019-05-28T21:37:31.283Z,7.83
2019-05-28T21:39:59.737Z,8.10
2019-05-28T21:42:28.461Z,8.47
2019-05-28T21:44:58.041Z,8.70
2019-05-28T21:47:26.590Z,8.53
2019-05-28T21:49:55.001Z,8.60
2019-05-28T21:52:23.406Z,8.40
2019-05-28T21:54:52.921Z,8.10
2019-05-28T21:57:21.451Z,8.40
2019-05-28T21:59:50.461Z,7.90
2019-05-28T22:02:19.070Z,8.83
2019-05-28T22:04:47.552Z,8.10
2019-05-28T22:07:15.978Z,8.43
2019-05-28T22:09:44.433Z,8.60
2019-05-28T22:12:13.132Z,8.60
2019-05-28T22:14:41.578Z,8.20
2019-05-28T22:17:12.724Z,8.57
2019-05-28T22:19:40.343Z,8.10
2019-05-28T22:22:09.096Z,8.60
2019-05-28T22:24:37.637Z,8.40
2019-05-28T22:27:06.072Z,7.90
2019-05-28T22:29:34.538Z,8.90
2019-05-28T22:32:03.002Z,8.53
2019-05-28T22:34:31.541Z,8.40
2019-05-28T22:37:00.275Z,8.10
2019-05-28T22:39:29.714Z,7.80
2019-05-28T22:41:59.518Z,8.93
2019-05-28T22:44:28.118Z,8.10
2019-05-28T22:46:57.068Z,8.43
2019-05-28T22:49:25.666Z,8.87
2019-05-28T22:51:54.042Z,8.27
2019-05-28T22:54:22.746Z,8.20
2019-05-28T22:56:51.114Z,8.47
2019-05-28T22:59:19.559Z,8.10
2019-05-28T23:01:48.007Z,8.50
2019-05-28T23:04:16.449Z,8.20
2019-05-28T23:06:44.914Z,8.63
2019-05-28T23:09:13.411Z,8.33
2019-05-28T23:11:41.874Z,8.10
2019-05-28T23:14:10.389Z,8.47
2019-05-28T23:16:38.884Z,8.40
2019-05-28T23:19:08.639Z,8.73
2019-05-28T23:21:37.204Z,8.10
2019-05-28T23:24:05.632Z,8.63
2019-05-28T23:26:34.116Z,8.20
2019-05-28T23:29:03.629Z,8.20
2019-05-28T23:31:32.178Z,8.30
2019-05-28T23:34:00.625Z,8.50
2019-05-28T23:36:29.051Z,8.50
2019-05-28T23:38:57.784Z,8.80
2019-05-28T23:41:26.336Z,7.83
2019-05-28T23:44:02.030Z,8.70
2019-05-28T23:46:24.895Z,8.10
2019-05-28T23:48:53.370Z,8.20
2019-05-28T23:51:21.796Z,8.20
2019-05-28T23:53:50.228Z,9.13
2019-05-28T23:56:18.792Z,9.07
2019-05-28T23:58:47.316Z,9.13
